Time;durP1;ratioP1;P1;durP2;ratioP2;P2;SDS_P1;SDS_P2;PMS_P1;PMS_P2;Temp;Humidity;BMP_temperature;BMP_pressure;BME280_temperature;BME280_humidity;BME280_pressure;Samples;Min_cycle;Max_cycle;Signal;HPM_P1;HPM_P2
2021/11/14 00:00:17;;;;;;;52.77;34.22;;;;;;;2.72;62.87;102276.80;445768;117;922625;-82
2021/11/14 00:01:21;;;;;;;51.19;32.88;;;;;;;2.70;62.82;102270.70;444091;116;922956;-80
2021/11/14 00:02:25;;;;;;;46.65;33.08;;;;;;;2.67;62.80;102277.17;444386;116;922745;-80
2021/11/14 00:03:30;;;;;;;48.24;32.74;;;;;;;2.63;62.74;102273.02;444779;116;923037;-80
2021/11/14 00:04:34;;;;;;;47.78;30.42;;;;;;;2.59;62.73;102273.39;444813;117;922560;-80
2021/11/14 00:05:40;;;;;;;43.77;28.76;;;;;;;2.56;62.96;102270.93;444159;117;930323;-80
2021/11/14 00:06:44;;;;;;;35.99;26.81;;;;;;;2.53;63.02;102269.36;445048;117;922665;-80
2021/11/14 00:07:48;;;;;;;38.45;27.36;;;;;;;2.53;63.12;102280.13;444302;117;923485;-80
2021/11/14 00:08:52;;;;;;;28.51;23.88;;;;;;;2.53;63.17;102279.27;444535;117;922657;-79
2021/11/14 00:09:56;;;;;;;28.73;22.35;;;;;;;2.51;63.21;102285.62;444391;116;923381;-80
2021/11/14 00:11:09;;;;;;;26.98;21.31;;;;;;;2.51;63.25;102279.38;444745;116;923715;-80
2021/11/14 00:12:12;;;;;;;26.88;20.29;;;;;;;2.51;63.32;102276.69;444705;117;922709;-80
2021/11/14 00:13:16;;;;;;;21.42;19.22;;;;;;;2.49;63.42;102275.94;444123;117;922746;-80
2021/11/14 00:14:20;;;;;;;21.89;19.31;;;;;;;2.50;63.50;102280.35;444321;116;922948;-79
2021/11/14 00:15:24;;;;;;;25.27;20.09;;;;;;;2.50;63.58;102280.35;445033;116;922722;-81
2021/11/14 00:16:29;;;;;;;20.39;18.25;;;;;;;2.50;63.62;102278.52;444690;117;930604;-80
2021/11/14 00:17:34;;;;;;;30.22;19.44;;;;;;;2.53;63.62;102287.34;448005;117;922769;-80
2021/11/14 00:18:39;;;;;;;22.42;18.85;;;;;;;2.51;63.54;102274.85;446419;116;930364;-79
2021/11/14 00:19:43;;;;;;;19.66;17.43;;;;;;;2.51;63.56;102272.16;446762;117;930495;-80
2021/11/14 00:20:47;;;;;;;19.84;17.85;;;;;;;2.51;63.62;102272.16;448129;116;922446;-79
2021/11/14 00:21:51;;;;;;;21.57;18.97;;;;;;;2.53;63.69;102273.87;447870;117;922895;-81
2021/11/14 00:22:56;;;;;;;20.48;17.05;;;;;;;2.54;63.68;102275.60;445981;116;922440;-80
2021/11/14 00:23:59;;;;;;;18.90;16.66;;;;;;;2.52;63.51;102275.72;446208;116;923027;-80
2021/11/14 00:25:06;;;;;;;19.37;17.39;;;;;;;2.50;63.52;102280.35;448894;116;923251;-80
2021/11/14 00:26:10;;;;;;;23.07;17.78;;;;;;;2.48;63.58;102276.94;450228;114;922700;-79
2021/11/14 00:27:14;;;;;;;20.69;18.41;;;;;;;2.46;63.61;102274.36;432383;120;922577;-80
2021/11/14 00:28:18;;;;;;;23.78;19.23;;;;;;;2.45;63.71;102278.03;451939;115;923035;-80
2021/11/14 00:29:24;;;;;;;23.26;18.51;;;;;;;2.45;63.66;102283.41;460516;113;930553;-80
2021/11/14 00:30:27;;;;;;;19.46;17.24;;;;;;;2.42;63.65;102280.11;461048;112;922706;-80
2021/11/14 00:31:32;;;;;;;19.49;17.24;;;;;;;2.39;63.56;102286.58;461607;113;923034;-82
2021/11/14 00:32:36;;;;;;;21.46;18.68;;;;;;;2.36;63.63;102284.14;461922;112;922704;-80
2021/11/14 00:33:43;;;;;;;20.08;17.54;;;;;;;2.34;63.74;102291.47;462214;112;922515;-80
2021/11/14 00:34:50;;;;;;;19.23;16.87;;;;;;;2.33;63.76;102283.51;461737;111;922651;-80
2021/11/14 00:35:53;;;;;;;18.75;16.86;;;;;;;2.30;63.84;102283.77;462333;110;922236;-80
2021/11/14 00:36:57;;;;;;;24.75;19.15;;;;;;;2.28;64.02;102281.18;456563;115;922549;-79
2021/11/14 00:38:00;;;;;;;33.34;22.43;;;;;;;2.29;64.13;102279.35;457049;113;922466;-81
2021/11/14 00:39:07;;;;;;;35.36;23.22;;;;;;;2.28;64.05;102277.63;461719;113;923102;-81
2021/11/14 00:40:15;;;;;;;32.52;22.78;;;;;;;2.24;63.86;102293.17;461871;111;922385;-79
2021/11/14 00:41:21;;;;;;;30.92;21.06;;;;;;;2.20;63.83;102282.77;462523;113;922757;-80
2021/11/14 00:42:25;;;;;;;24.57;19.24;;;;;;;2.15;63.89;102291.17;461756;113;922239;-80
2021/11/14 00:43:29;;;;;;;28.89;20.56;;;;;;;2.12;63.95;102285.18;462863;113;922406;-79
2021/11/14 00:44:32;;;;;;;23.06;18.98;;;;;;;2.08;64.10;102285.44;462685;112;922247;-80
2021/11/14 00:45:37;;;;;;;22.88;19.48;;;;;;;2.07;64.28;102281.02;463594;113;922046;-81
2021/11/14 00:46:41;;;;;;;26.65;19.76;;;;;;;2.09;64.35;102283.60;462712;113;922256;-79
2021/11/14 00:47:45;;;;;;;22.35;18.38;;;;;;;2.08;64.41;102287.27;462637;113;922423;-79
2021/11/14 00:48:49;;;;;;;21.25;16.66;;;;;;;2.08;64.61;102285.44;463786;113;922228;-79
2021/11/14 00:49:53;;;;;;;19.15;15.35;;;;;;;2.10;64.76;102283.45;462825;113;922116;-80
2021/11/14 00:51:00;;;;;;;16.31;14.65;;;;;;;2.13;64.91;102286.91;463336;113;922286;-80
2021/11/14 00:52:03;;;;;;;16.61;14.82;;;;;;;2.16;64.98;102281.27;463105;113;922324;-81
2021/11/14 00:53:07;;;;;;;16.69;14.93;;;;;;;2.19;65.02;102283.73;463245;111;922258;-79
2021/11/14 00:54:11;;;;;;;16.92;14.94;;;;;;;2.20;64.94;102280.08;462957;111;922318;-79
2021/11/14 00:55:18;;;;;;;17.56;15.92;;;;;;;2.20;64.99;102288.16;463295;113;922064;-80
2021/11/14 00:56:25;;;;;;;15.80;14.18;;;;;;;2.21;65.05;102284.45;462954;111;930165;-80
2021/11/14 00:57:28;;;;;;;15.36;13.82;;;;;;;2.23;65.14;102280.69;463132;113;922398;-81
2021/11/14 00:58:32;;;;;;;16.07;14.31;;;;;;;2.25;65.18;102283.27;462631;111;922228;-81
2021/11/14 00:59:36;;;;;;;16.95;14.78;;;;;;;2.28;65.22;102285.70;463451;113;922417;-81
2021/11/14 01:00:40;;;;;;;21.03;15.83;;;;;;;2.29;65.24;102282.91;463411;111;922589;-80
2021/11/14 01:01:44;;;;;;;17.86;15.34;;;;;;;2.32;65.24;102281.78;454451;115;922590;-80
2021/11/14 01:02:49;;;;;;;15.72;14.12;;;;;;;2.33;65.18;102286.20;455278;113;922513;-80
2021/11/14 01:03:54;;;;;;;17.03;15.30;;;;;;;2.34;65.11;102287.92;462207;113;922914;-78
2021/11/14 01:04:58;;;;;;;17.76;15.30;;;;;;;2.33;65.08;102286.20;462255;113;922906;-79
2021/11/14 01:06:02;;;;;;;16.63;14.64;;;;;;;2.35;65.11;102289.64;462839;113;922133;-81
2021/11/14 01:07:06;;;;;;;17.49;15.24;;;;;;;2.35;65.10;102286.95;462999;113;924542;-80
2021/11/14 01:08:11;;;;;;;20.22;16.65;;;;;;;2.36;65.02;102288.67;462671;113;922150;-80
2021/11/14 01:09:15;;;;;;;17.04;15.26;;;;;;;2.35;64.95;102284.26;462369;113;922591;-80
2021/11/14 01:10:24;;;;;;;16.96;15.27;;;;;;;2.35;64.87;102286.95;462525;113;922425;-80
2021/11/14 01:11:28;;;;;;;23.00;17.93;;;;;;;2.32;64.80;102282.64;463145;111;922090;-80
2021/11/14 01:12:32;;;;;;;18.37;16.55;;;;;;;2.30;64.81;102283.77;462890;113;922348;-79
2021/11/14 01:13:39;;;;;;;16.44;14.79;;;;;;;2.29;64.88;102287.42;462902;113;922268;-80
2021/11/14 01:14:42;;;;;;;19.45;17.49;;;;;;;2.30;64.97;102286.45;462198;113;930342;-81
2021/11/14 01:15:50;;;;;;;18.56;16.56;;;;;;;2.31;65.00;102291.72;463436;112;922305;-82
2021/11/14 01:16:54;;;;;;;18.32;16.21;;;;;;;2.32;65.04;102276.41;447771;117;922113;-81
2021/11/14 01:17:59;;;;;;;19.53;17.65;;;;;;;2.35;65.11;102286.95;449036;115;922351;-80
2021/11/14 01:19:02;;;;;;;20.36;17.36;;;;;;;2.35;65.05;102274.34;462655;113;922305;-81
2021/11/14 01:20:10;;;;;;;21.71;16.50;;;;;;;2.37;64.96;102283.14;463042;113;922407;-80
2021/11/14 01:21:16;;;;;;;20.36;16.48;;;;;;;2.38;64.98;102282.17;462280;113;922334;-80
2021/11/14 01:22:20;;;;;;;19.53;17.51;;;;;;;2.41;64.95;102283.78;462429;111;922574;-79
2021/11/14 01:23:24;;;;;;;19.99;17.66;;;;;;;2.41;64.96;102273.01;462659;111;922198;-80
2021/11/14 01:24:28;;;;;;;21.33;17.70;;;;;;;2.42;64.92;102274.73;462423;112;922035;-80
2021/11/14 01:25:32;;;;;;;19.27;17.32;;;;;;;2.43;64.87;102271.89;462792;113;922234;-80
2021/11/14 01:26:36;;;;;;;20.09;18.12;;;;;;;2.44;64.78;102278.14;462112;113;922512;-80
2021/11/14 01:27:40;;;;;;;20.98;17.31;;;;;;;2.44;64.71;102280.83;462121;113;922623;-80
2021/11/14 01:28:44;;;;;;;20.19;17.97;;;;;;;2.42;64.63;102289.05;461503;112;922567;-80
2021/11/14 01:29:47;;;;;;;23.15;17.36;;;;;;;2.41;64.65;102281.95;461844;113;922536;-80
2021/11/14 01:30:54;;;;;;;20.59;18.51;;;;;;;2.41;64.69;102289.16;462616;113;922439;-80
2021/11/14 01:31:58;;;;;;;23.77;18.31;;;;;;;2.39;64.55;102286.58;462246;111;922611;-80
2021/11/14 01:33:05;;;;;;;23.98;17.78;;;;;;;2.39;64.52;102291.11;462293;111;922461;-80
2021/11/14 01:34:08;;;;;;;21.01;18.41;;;;;;;2.37;64.42;102288.52;462052;113;922616;-80
2021/11/14 01:35:13;;;;;;;24.85;18.92;;;;;;;2.36;64.37;102291.36;462217;113;922849;-80
2021/11/14 01:36:17;;;;;;;25.57;19.84;;;;;;;2.34;64.46;102290.61;461933;111;922689;-81
2021/11/14 01:37:21;;;;;;;23.29;20.02;;;;;;;2.33;64.42;102288.89;461782;113;922399;-80
2021/11/14 01:38:27;;;;;;;21.37;18.42;;;;;;;2.32;64.47;102293.41;462066;113;922434;-79
2021/11/14 01:39:32;;;;;;;28.65;20.61;;;;;;;2.32;64.44;102282.64;457522;115;922970;-80
2021/11/14 01:40:46;;;;;;;22.83;20.43;;;;;;;2.33;64.39;102284.37;457969;114;922747;-81
2021/11/14 01:41:50;;;;;;;25.17;20.77;;;;;;;2.33;64.25;102288.89;461338;113;922452;-79
2021/11/14 01:42:54;;;;;;;24.38;20.32;;;;;;;2.29;64.12;102282.91;461806;113;922490;-80
2021/11/14 01:43:58;;;;;;;26.50;22.01;;;;;;;2.26;64.17;102285.81;462043;113;922568;-79
2021/11/14 01:45:02;;;;;;;28.02;20.11;;;;;;;2.23;64.23;102283.38;461913;113;922737;-81
2021/11/14 01:46:07;;;;;;;24.98;22.17;;;;;;;2.22;64.29;102286.17;462421;113;922505;-81
2021/11/14 01:47:11;;;;;;;24.95;20.96;;;;;;;2.21;64.32;102285.31;461536;113;922519;-80
2021/11/14 01:48:16;;;;;;;27.04;21.44;;;;;;;2.22;64.31;102287.04;461895;111;922831;-81
2021/11/14 01:49:20;;;;;;;27.29;21.41;;;;;;;2.23;64.34;102288.76;461372;113;922508;-80
2021/11/14 01:50:27;;;;;;;30.16;22.18;;;;;;;2.21;64.30;102288.00;460574;113;923051;-79
2021/11/14 01:51:31;;;;;;;24.40;21.12;;;;;;;2.21;64.32;102296.08;461516;111;922517;-80
2021/11/14 01:52:34;;;;;;;23.91;20.14;;;;;;;2.21;64.34;102289.84;462276;113;922464;-80
2021/11/14 01:53:39;;;;;;;30.70;21.43;;;;;;;2.22;64.31;102294.25;462134;111;923263;-79
2021/11/14 01:54:43;;;;;;;21.99;19.37;;;;;;;2.22;64.29;102305.88;461494;113;922987;-79
2021/11/14 01:55:48;;;;;;;21.99;18.50;;;;;;;2.24;64.31;102303.08;462252;113;922852;-80
2021/11/14 01:56:52;;;;;;;23.59;18.40;;;;;;;2.22;64.28;102302.32;461339;111;930475;-81
2021/11/14 01:57:57;;;;;;;21.88;18.52;;;;;;;2.24;64.27;102305.77;462056;113;922915;-80
2021/11/14 01:59:01;;;;;;;21.88;18.16;;;;;;;2.23;64.19;102307.59;462015;113;922586;-79
2021/11/14 02:00:14;;;;;;;24.42;18.07;;;;;;;2.24;64.13;102308.45;461753;111;922870;-81
2021/11/14 02:01:22;;;;;;;24.85;19.82;;;;;;;2.25;64.09;102310.17;454155;113;922628;-80
2021/11/14 02:02:26;;;;;;;22.47;18.38;;;;;;;2.24;64.01;102306.62;461199;113;923511;-80
2021/11/14 02:03:30;;;;;;;24.97;19.12;;;;;;;2.24;63.93;102309.31;461433;113;922535;-80
2021/11/14 02:04:34;;;;;;;24.28;19.26;;;;;;;2.23;63.88;102310.29;462184;111;922543;-79
2021/11/14 02:05:37;;;;;;;25.04;19.72;;;;;;;2.25;63.75;102307.48;462314;113;923028;-80
2021/11/14 02:06:46;;;;;;;25.22;20.60;;;;;;;2.24;63.71;102308.45;461324;113;930323;-80
2021/11/14 02:07:47;;;;;;;29.11;20.17;;;;;;;2.23;63.66;102306.73;461504;113;922716;-79
2021/11/14 02:08:52;;;;;;;23.92;20.48;;;;;;;2.22;63.52;102308.56;462157;113;922446;-79
2021/11/14 02:09:56;;;;;;;26.76;20.33;;;;;;;2.21;63.44;102314.91;461386;113;922477;-80
2021/11/14 02:11:00;;;;;;;27.81;19.61;;;;;;;2.18;63.38;102311.62;462010;113;922983;-80
2021/11/14 02:12:05;;;;;;;23.20;20.56;;;;;;;2.16;63.17;102311.73;462177;113;922869;-79
2021/11/14 02:13:09;;;;;;;20.72;18.49;;;;;;;2.09;63.09;102307.81;461403;113;930528;-80
2021/11/14 02:14:13;;;;;;;25.70;20.65;;;;;;;2.03;63.12;102308.28;462220;113;922885;-80
2021/11/14 02:15:18;;;;;;;21.04;18.80;;;;;;;1.97;63.19;102309.61;462176;113;922527;-80
2021/11/14 02:16:25;;;;;;;18.50;16.61;;;;;;;1.94;63.40;102314.34;462375;112;922589;-80
2021/11/14 02:17:30;;;;;;;19.85;16.46;;;;;;;1.92;63.47;102313.62;461656;112;930677;-80
2021/11/14 02:18:34;;;;;;;21.47;15.82;;;;;;;1.92;63.71;102314.48;460972;113;922586;-81
2021/11/14 02:19:38;;;;;;;19.00;16.42;;;;;;;1.93;63.75;102312.66;461212;113;922532;-81
2021/11/14 02:20:44;;;;;;;22.12;16.77;;;;;;;1.94;63.77;102314.34;461362;113;922476;-79
2021/11/14 02:21:48;;;;;;;19.59;17.51;;;;;;;1.94;63.74;102304.45;461442;113;922766;-79
2021/11/14 02:22:53;;;;;;;19.78;16.07;;;;;;;1.96;63.72;102307.03;461655;113;923026;-81
2021/11/14 02:23:56;;;;;;;18.52;16.25;;;;;;;1.95;63.74;102306.17;461779;113;922576;-81
2021/11/14 02:25:00;;;;;;;17.12;15.44;;;;;;;1.97;63.72;102308.75;461778;111;922711;-81
2021/11/14 02:26:04;;;;;;;17.95;16.12;;;;;;;1.97;63.75;102317.68;462424;111;922678;-80
2021/11/14 02:27:08;;;;;;;17.79;15.02;;;;;;;1.96;63.71;102310.58;461611;113;922498;-80
2021/11/14 02:28:13;;;;;;;14.96;13.45;;;;;;;1.95;63.63;102316.92;461649;113;922949;-79
2021/11/14 02:29:18;;;;;;;14.96;13.28;;;;;;;1.94;63.64;102315.20;461707;111;922622;-80
2021/11/14 02:30:24;;;;;;;16.74;14.60;;;;;;;1.91;63.69;102315.45;462198;112;922587;-80
2021/11/14 02:31:28;;;;;;;16.17;13.79;;;;;;;1.90;63.80;102316.42;461137;113;922545;-79
2021/11/14 02:32:32;;;;;;;15.86;14.21;;;;;;;1.90;63.80;102312.88;461531;113;923062;-79
2021/11/14 02:33:38;;;;;;;15.68;14.15;;;;;;;1.88;63.72;102318.36;458378;113;922724;-80
2021/11/14 02:34:42;;;;;;;19.26;15.96;;;;;;;1.86;63.64;102319.47;461018;113;922520;-79
2021/11/14 02:35:49;;;;;;;18.54;15.97;;;;;;;1.82;63.67;102312.61;461610;113;923112;-79
2021/11/14 02:36:54;;;;;;;17.18;14.87;;;;;;;1.78;63.69;102317.34;461343;112;922538;-80
2021/11/14 02:37:57;;;;;;;17.15;15.38;;;;;;;1.75;63.86;102322.97;461694;111;922672;-80
2021/11/14 02:39:01;;;;;;;16.31;14.68;;;;;;;1.74;64.02;102315.01;461782;113;922495;-80
2021/11/14 02:40:08;;;;;;;19.54;16.04;;;;;;;1.74;64.09;102321.25;461555;113;923047;-80
2021/11/14 02:41:13;;;;;;;17.77;15.70;;;;;;;1.73;64.06;102314.14;461775;113;923855;-80
2021/11/14 02:42:17;;;;;;;18.25;16.45;;;;;;;1.71;64.10;102321.45;462507;113;922625;-80
2021/11/14 02:43:21;;;;;;;15.70;14.06;;;;;;;1.68;64.15;102316.33;462032;113;922659;-80
2021/11/14 02:44:24;;;;;;;15.74;14.02;;;;;;;1.66;64.15;102315.57;454358;115;922617;-80
2021/11/14 02:45:28;;;;;;;16.54;14.41;;;;;;;1.63;64.18;102315.81;453879;113;922625;-80
2021/11/14 02:46:32;;;;;;;16.78;14.47;;;;;;;1.62;64.26;102314.09;461770;113;930504;-80
2021/11/14 02:47:37;;;;;;;20.03;17.78;;;;;;;1.62;64.26;102316.78;461282;111;922478;-79
2021/11/14 02:48:42;;;;;;;19.61;17.16;;;;;;;1.61;64.28;102325.81;462047;113;922789;-81
2021/11/14 02:49:46;;;;;;;21.99;18.22;;;;;;;1.58;64.18;102323.37;461603;113;923391;-81
2021/11/14 02:50:52;;;;;;;19.38;16.67;;;;;;;1.54;64.19;102319.20;461604;113;922696;-81
2021/11/14 02:51:56;;;;;;;21.21;17.34;;;;;;;1.51;64.36;102316.72;461111;113;922660;-80
2021/11/14 02:53:00;;;;;;;18.58;15.66;;;;;;;1.50;64.52;102323.92;461431;113;922944;-80
2021/11/14 02:54:05;;;;;;;16.92;15.02;;;;;;;1.51;64.64;102316.72;461744;111;923108;-80
2021/11/14 02:55:12;;;;;;;19.02;15.81;;;;;;;1.51;64.73;102319.41;461439;111;922918;-81
2021/11/14 02:56:17;;;;;;;16.99;14.80;;;;;;;1.52;64.75;102321.99;462061;113;922830;-79
2021/11/14 02:57:21;;;;;;;15.37;13.57;;;;;;;1.53;64.83;102317.48;462253;113;922431;-80
2021/11/14 02:58:28;;;;;;;15.66;14.03;;;;;;;1.56;64.90;102319.92;462501;113;922637;-81
2021/11/14 02:59:33;;;;;;;17.53;13.10;;;;;;;1.57;64.97;102325.20;462424;113;922515;-81
2021/11/14 03:00:40;;;;;;;13.66;12.24;;;;;;;1.61;65.04;102321.30;461436;113;922561;-78
2021/11/14 03:01:48;;;;;;;13.48;12.10;;;;;;;1.65;65.05;102328.16;461605;113;922666;-81
2021/11/14 03:02:52;;;;;;;14.43;12.79;;;;;;;1.69;65.00;102328.80;461406;111;922578;-80
2021/11/14 03:03:58;;;;;;;13.61;12.20;;;;;;;1.71;64.92;102324.15;461421;111;923787;-79
2021/11/14 03:05:12;;;;;;;13.63;12.24;;;;;;;1.73;64.81;102324.04;461403;113;930497;-80
2021/11/14 03:06:16;;;;;;;14.02;11.76;;;;;;;1.75;64.74;102320.28;461277;111;922893;-80
2021/11/14 03:07:20;;;;;;;14.12;12.52;;;;;;;1.77;64.58;102318.31;461680;111;922593;-79
2021/11/14 03:08:24;;;;;;;13.78;12.46;;;;;;;1.79;64.54;102323.58;461325;113;922724;-79
2021/11/14 03:09:28;;;;;;;15.28;13.24;;;;;;;1.79;64.43;102324.44;461307;113;922443;-79
2021/11/14 03:10:32;;;;;;;19.72;13.82;;;;;;;1.79;64.34;102324.44;461118;112;922982;-79
2021/11/14 03:11:36;;;;;;;14.87;12.29;;;;;;;1.80;64.26;102323.48;461088;113;923049;-79
2021/11/14 03:12:41;;;;;;;12.85;11.16;;;;;;;1.81;64.21;102321.65;454013;115;922655;-78
2021/11/14 03:13:45;;;;;;;14.21;12.01;;;;;;;1.81;64.06;102319.81;453656;114;923928;-79
2021/11/14 03:14:49;;;;;;;12.04;10.78;;;;;;;1.81;63.97;102318.96;461307;113;930411;-79
2021/11/14 03:15:56;;;;;;;14.12;12.66;;;;;;;1.81;63.89;102316.27;461585;113;923079;-77
2021/11/14 03:17:00;;;;;;;12.33;11.19;;;;;;;1.79;63.77;102318.20;461221;113;922696;-77
2021/11/14 03:18:05;;;;;;;12.85;11.50;;;;;;;1.79;63.77;102321.75;461265;113;922626;-80
2021/11/14 03:19:09;;;;;;;13.28;11.88;;;;;;;1.79;63.76;102327.13;461524;112;923794;-78
2021/11/14 03:20:13;;;;;;;14.28;12.90;;;;;;;1.78;63.78;102324.55;461916;113;922633;-79
2021/11/14 03:21:18;;;;;;;15.93;14.32;;;;;;;1.79;63.79;102332.52;461407;113;923234;-79
2021/11/14 03:22:22;;;;;;;15.40;13.93;;;;;;;1.79;63.80;102326.27;460953;113;922939;-79
2021/11/14 03:23:27;;;;;;;16.19;14.36;;;;;;;1.79;63.84;102327.13;461311;113;922631;-78
2021/11/14 03:24:31;;;;;;;19.29;15.44;;;;;;;1.80;63.79;102326.16;462688;112;922976;-79
2021/11/14 03:25:35;;;;;;;20.12;15.26;;;;;;;1.80;63.73;102314.55;461682;113;922624;-81
2021/11/14 03:26:39;;;;;;;21.07;17.42;;;;;;;1.79;63.71;102320.89;461532;113;922581;-81
2021/11/14 03:27:43;;;;;;;22.69;16.96;;;;;;;1.79;63.72;102323.58;462422;113;922560;-78
2021/11/14 03:28:47;;;;;;;21.38;17.67;;;;;;;1.78;63.73;102319.17;461298;113;922538;-79
2021/11/14 03:29:51;;;;;;;25.33;19.53;;;;;;;1.77;63.68;102321.00;461457;113;922913;-79
2021/11/14 03:30:57;;;;;;;26.15;19.88;;;;;;;1.76;63.64;102322.00;461496;113;922697;-79
2021/11/14 03:32:01;;;;;;;28.32;20.98;;;;;;;1.76;63.62;102322.00;461629;111;922505;-79
2021/11/14 03:33:08;;;;;;;24.31;21.09;;;;;;;1.76;63.60;102326.52;461690;113;922712;-80
2021/11/14 03:34:12;;;;;;;32.75;23.13;;;;;;;1.76;63.53;102329.20;461377;112;922751;-78
2021/11/14 03:35:17;;;;;;;106.69;43.68;;;;;;;1.74;63.46;102326.62;461665;113;923124;-79
2021/11/14 03:36:21;;;;;;;255.03;95.28;;;;;;;1.73;63.42;102322.21;461347;112;922554;-79
2021/11/14 03:37:25;;;;;;;436.24;180.87;;;;;;;1.73;63.39;102329.42;461340;111;922939;-77
2021/11/14 03:38:35;;;;;;;398.00;171.72;;;;;;;1.73;63.34;102329.42;461264;113;922515;-79
2021/11/14 03:39:39;;;;;;;339.14;152.63;;;;;;;1.72;63.27;102328.56;452912;114;923042;-78
2021/11/14 03:40:43;;;;;;;282.39;139.59;;;;;;;1.71;63.17;102320.63;453309;114;922690;-78
2021/11/14 03:41:47;;;;;;;268.35;139.73;;;;;;;1.70;63.15;102327.84;453042;115;922650;-79
2021/11/14 03:42:51;;;;;;;202.49;105.16;;;;;;;1.69;63.07;102331.48;453550;115;922455;-81
2021/11/14 03:43:56;;;;;;;154.87;76.87;;;;;;;1.68;63.06;102333.32;453473;115;922529;-78
2021/11/14 03:45:00;;;;;;;117.67;59.83;;;;;;;1.68;63.05;102330.63;453551;115;922527;-77
2021/11/14 03:46:05;;;;;;;83.32;45.23;;;;;;;1.68;63.01;102338.70;454111;115;923050;-78
2021/11/14 03:47:10;;;;;;;60.05;33.86;;;;;;;1.67;62.96;102333.42;453394;115;922825;-78
2021/11/14 03:48:14;;;;;;;45.92;30.12;;;;;;;1.67;62.94;102338.80;454184;115;930505;-78
2021/11/14 03:49:17;;;;;;;46.26;27.15;;;;;;;1.65;62.88;102333.53;453651;114;930523;-79
2021/11/14 03:50:21;;;;;;;39.98;26.63;;;;;;;1.65;62.72;102333.53;454101;114;922915;-80
2021/11/14 03:51:26;;;;;;;39.30;25.22;;;;;;;1.62;62.64;102331.09;453689;115;923258;-78
2021/11/14 03:52:30;;;;;;;33.52;23.90;;;;;;;1.59;62.63;102336.70;452966;114;922571;-79
2021/11/14 03:53:34;;;;;;;27.24;21.78;;;;;;;1.58;62.70;102339.50;453621;115;930386;-77
2021/11/14 03:54:38;;;;;;;28.45;21.35;;;;;;;1.58;62.78;102336.81;452972;115;930332;-79
2021/11/14 03:55:44;;;;;;;29.01;20.17;;;;;;;1.58;62.72;102342.19;451705;115;922984;-78
2021/11/14 03:56:47;;;;;;;30.48;21.07;;;;;;;1.57;62.70;102337.77;453191;114;923354;-79
2021/11/14 03:57:51;;;;;;;26.92;19.62;;;;;;;1.57;62.71;102343.16;453966;114;922548;-78
2021/11/14 03:58:55;;;;;;;25.61;18.78;;;;;;;1.56;62.73;102344.12;453748;115;922666;-79
2021/11/14 03:59:59;;;;;;;25.74;19.42;;;;;;;1.55;62.76;102342.39;453595;115;923341;-77
2021/11/14 04:01:06;;;;;;;26.09;18.96;;;;;;;1.54;62.81;102340.70;453269;114;922742;-78
2021/11/14 04:02:10;;;;;;;24.31;19.43;;;;;;;1.54;62.78;102348.77;452419;114;923316;-80
2021/11/14 04:03:14;;;;;;;25.89;19.41;;;;;;;1.54;62.83;102346.08;453338;115;922662;-78
2021/11/14 04:04:18;;;;;;;25.72;19.08;;;;;;;1.53;62.80;102344.36;453627;114;922492;-79
2021/11/14 04:05:24;;;;;;;30.76;19.14;;;;;;;1.51;62.81;102339.09;453304;115;922590;-79
2021/11/14 04:06:28;;;;;;;21.41;18.21;;;;;;;1.50;62.84;102340.05;453758;114;923232;-77
2021/11/14 04:07:33;;;;;;;22.69;18.97;;;;;;;1.50;62.85;102341.87;453013;115;922712;-78
2021/11/14 04:08:37;;;;;;;19.69;17.63;;;;;;;1.50;62.91;102348.11;452879;115;922639;-78
2021/11/14 04:09:41;;;;;;;18.52;16.71;;;;;;;1.49;62.92;102353.62;453353;114;923800;-78
2021/11/14 04:10:47;;;;;;;20.36;16.82;;;;;;;1.48;62.90;102350.08;453412;114;922916;-79
2021/11/14 04:11:51;;;;;;;18.96;17.08;;;;;;;1.49;62.87;102350.94;452982;115;922670;-79
2021/11/14 04:12:56;;;;;;;20.05;17.81;;;;;;;1.46;62.79;102346.64;453636;115;923036;-78
2021/11/14 04:14:00;;;;;;;18.16;16.17;;;;;;;1.46;62.82;102351.15;453227;114;930917;-79
2021/11/14 04:15:10;;;;;;;18.09;16.14;;;;;;;1.46;62.77;102343.95;453210;115;922606;-80
2021/11/14 04:16:15;;;;;;;17.47;15.77;;;;;;;1.46;62.76;102354.70;453537;115;922775;-78
2021/11/14 04:17:19;;;;;;;16.09;14.55;;;;;;;1.47;62.75;102350.19;453406;114;922603;-79
2021/11/14 04:18:23;;;;;;;15.65;13.85;;;;;;;1.47;62.71;102345.67;454018;114;922668;-79
2021/11/14 04:19:26;;;;;;;15.05;13.61;;;;;;;1.47;62.70;102342.13;453667;115;922874;-79
2021/11/14 04:20:33;;;;;;;15.68;13.99;;;;;;;1.46;62.72;102343.09;453441;115;922739;-79
2021/11/14 04:21:38;;;;;;;14.98;13.15;;;;;;;1.47;62.76;102350.19;453496;114;923338;-76
2021/11/14 04:22:42;;;;;;;14.64;13.04;;;;;;;1.46;62.80;102346.64;453419;114;922668;-80
2021/11/14 04:23:45;;;;;;;14.21;12.71;;;;;;;1.46;62.73;102343.09;454168;115;922700;-79
2021/11/14 04:24:49;;;;;;;15.33;13.12;;;;;;;1.46;62.67;102353.84;453419;115;922521;-80
2021/11/14 04:25:54;;;;;;;13.29;12.10;;;;;;;1.43;62.64;102357.62;452611;115;922793;-79
2021/11/14 04:26:58;;;;;;;14.12;12.87;;;;;;;1.42;62.61;102357.73;453202;115;930434;-78
2021/11/14 04:28:02;;;;;;;12.96;11.58;;;;;;;1.41;62.64;102354.18;453224;115;922572;-77
2021/11/14 04:29:06;;;;;;;13.26;12.02;;;;;;;1.41;62.67;102353.32;453017;115;922604;-78
2021/11/14 04:30:11;;;;;;;13.55;12.06;;;;;;;1.41;62.67;102353.32;445926;116;930904;-79
2021/11/14 04:31:15;;;;;;;12.34;11.25;;;;;;;1.41;62.64;102356.00;437858;117;922810;-77
2021/11/14 04:32:18;;;;;;;12.72;11.08;;;;;;;1.41;62.64;102353.32;437811;119;922760;-78
2021/11/14 04:33:22;;;;;;;13.11;11.84;;;;;;;1.42;62.59;102363.11;439484;117;922446;-78
2021/11/14 04:34:26;;;;;;;12.61;11.24;;;;;;;1.42;62.61;102357.73;442063;118;930306;-78
2021/11/14 04:35:30;;;;;;;12.96;11.19;;;;;;;1.42;62.57;102360.41;440820;119;922654;-79
2021/11/14 04:36:33;;;;;;;12.20;11.09;;;;;;;1.42;62.55;102360.41;444229;118;930757;-76
2021/11/14 04:37:37;;;;;;;13.19;11.80;;;;;;;1.42;62.51;102360.41;441861;119;923298;-79
2021/11/14 04:38:41;;;;;;;12.29;11.10;;;;;;;1.41;62.48;102361.38;439418;118;930757;-77
2021/11/14 04:39:45;;;;;;;11.67;10.41;;;;;;;1.41;62.39;102364.06;443103;117;922694;-78
2021/11/14 04:40:50;;;;;;;12.49;11.37;;;;;;;1.40;62.36;102365.03;440747;118;923561;-80
2021/11/14 04:41:53;;;;;;;13.67;11.69;;;;;;;1.38;62.47;102365.14;455610;113;930597;-79
2021/11/14 04:42:58;;;;;;;12.86;11.21;;;;;;;1.39;62.48;102368.69;460331;113;922878;-78
2021/11/14 04:44:02;;;;;;;21.26;10.69;;;;;;;1.38;62.47;102375.06;460078;113;930531;-80
2021/11/14 04:45:06;;;;;;;12.22;11.15;;;;;;;1.37;62.51;102373.34;460611;113;923052;-79
2021/11/14 04:46:12;;;;;;;11.64;10.10;;;;;;;1.36;62.51;102369.78;460068;113;922755;-78
2021/11/14 04:47:16;;;;;;;13.21;10.72;;;;;;;1.35;62.42;102369.89;460594;113;922976;-78
2021/11/14 04:48:23;;;;;;;15.61;10.87;;;;;;;1.32;62.34;102370.13;460575;113;922971;-79
2021/11/14 04:49:27;;;;;;;11.58;10.44;;;;;;;1.29;62.44;102375.70;460283;113;922547;-78
2021/11/14 04:50:31;;;;;;;12.79;10.61;;;;;;;1.29;62.55;102379.25;460052;112;922617;-81
2021/11/14 04:51:35;;;;;;;11.81;10.63;;;;;;;1.28;62.59;102373.98;460310;113;923126;-79
2021/11/14 04:52:40;;;;;;;13.21;11.45;;;;;;;1.28;62.63;102384.73;460615;113;923003;-78
2021/11/14 04:53:43;;;;;;;13.76;11.69;;;;;;;1.29;62.72;102386.45;460630;113;922917;-77